< Typhoon 201525 2015 Season Typhoon 201527 >
Typhoon 201526 (IN-FA)
General InformationTrack Information on Google MapsDetailed Wind InformationForecast History on Google MapsAccess Analytics MapList of All Images || NewsDisaster Info.WeblogTrackbackTyphoon FrontTwiphoonTyphoon Now!Typhoon ImaginationDisaster Info. XMLResourceGoogle EarthGE AnimationAtom FeedGeoJSON
Detalied Best Track (Time Zone = UTC)
Year Month Day Hour Lat. Long. Pressure (hPa) Wind (kt) Class Image Chart
2015 11 16 18 3.5 163.6 1002 0 2 Image Chart
2015 11 17 00 3.8 162.5 1002 0 2 Image Chart
2015 11 17 06 4.3 161.3 1002 0 2 Image Chart
2015 11 17 12 4.7 159.8 1002 35 3 Image Chart
2015 11 17 18 5.2 158.3 1000 35 3 Image Chart
2015 11 18 00 5.5 157.2 998 35 3 Image Chart
2015 11 18 06 5.8 155.7 996 35 3 Image Chart
2015 11 18 12 6.2 154.7 994 40 3 Image Chart
2015 11 18 18 7.0 153.8 994 40 3 Image Chart
2015 11 19 00 8.1 152.7 994 40 3 Image Chart
2015 11 19 06 8.7 151.4 992 45 3 Image Chart
2015 11 19 12 9.2 150.4 985 50 4 Image Chart
2015 11 19 18 9.8 149.4 975 60 4 Image Chart
2015 11 20 00 9.9 148.7 970 65 5 Image Chart
2015 11 20 06 10.4 147.5 960 75 5 Image Chart
2015 11 20 12 10.8 146.0 950 80 5 Image Chart
2015 11 20 18 11.0 144.4 940 90 5 Image Chart
2015 11 21 00 11.2 142.9 935 95 5 Image Chart
2015 11 21 06 11.9 141.4 935 95 5 Image Chart
2015 11 21 12 12.4 139.6 940 90 5 Image Chart
2015 11 21 18 12.8 137.9 940 90 5 Image Chart
2015 11 22 00 13.5 136.6 945 85 5 Image Chart
2015 11 22 06 14.2 135.2 945 85 5 Image Chart
2015 11 22 12 14.6 133.9 945 85 5 Image Chart
2015 11 22 18 15.3 132.8 950 80 5 Image Chart
2015 11 23 00 15.8 132.0 950 80 5 Image Chart
2015 11 23 06 16.5 131.6 950 80 5 Image Chart
2015 11 23 12 17.2 131.5 950 80 5 Image Chart
2015 11 23 18 17.9 131.7 955 75 5 Image Chart
2015 11 24 00 18.6 132.0 960 75 5 Image Chart
2015 11 24 06 18.8 132.9 965 70 5 Image Chart
2015 11 24 12 19.1 133.7 975 60 4 Image Chart
2015 11 24 18 19.4 134.5 985 50 4 Image Chart
2015 11 25 00 19.5 135.1 990 45 3 Image Chart
2015 11 25 06 19.9 135.9 994 40 3 Image Chart
2015 11 25 12 20.7 136.7 996 35 3 Image Chart
2015 11 25 18 21.5 137.7 998 35 3 Image Chart
2015 11 26 00 22.4 138.5 1002 35 3 Image Chart
2015 11 26 06 23.5 139.8 1002 35 3 Image Chart
2015 11 26 12 25.2 141.8 1002 35 3 Image Chart
2015 11 26 18 26.8 144.5 1002 35 3 Image Chart
2015 11 27 00 28.1 147.4 1008 0 6 Image Chart
2015 11 27 06 29.6 150.4 1012 0 6 Image Chart
Japan Meteorological Agency Best Track Data | Correction Date : 2016-01-04
< Typhoon 201525 2015 Season Typhoon 201527 >

Help